M02 weather

Dickson Municipal Airport
Dickson, Tennessee, United States

Public forecast

Using degrees Fahrenheit for public forecast. Weather courtesy of forecast.io.

Current aviation weather report (METAR) for Dickson Municipal Airport

Retrieved 2019/10/17 11:35 UTC (0 seconds ago):

KM02 171135Z AUTO 00000KT 10SM CLR 03/02 A3006 RMK A01

Closest aviation forecast (TAF) to Dickson Municipal Airport

Closest forecast is Clarksville–Montgomery County Regional Airport, 29.7 nm (54.9 km) N. Retrieved 2019/10/17 06:22 UTC (5 hours ago):

TAF KCKV 170520Z 1706/1806 33004KT P6SM SKC FM171700 33006KT P6SM FEW250 FM172300 VRB03KT P6SM SKC